Date,TemperatureHighF,TemperatureAvgF,TemperatureLowF,DewpointHighF,DewpointAvgF,DewpointLowF,HumidityHigh,HumidityAvg,HumidityLow,PressureMaxIn,PressureMinIn,WindSpeedMaxMPH,WindSpeedAvgMPH,GustSpeedMaxMPH,PrecipitationSumIn
2013-1-1,34.7,23.8,8.6,27.7,16.8,4.9,87,75,62,30.05,29.83,8,4,18,0.01
2013-1-2,24.9,18.5,10.3,21.0,13.1,5.6,90,79,68,30.26,30.00,7,4,10,0.00
2013-1-3,28.8,20.1,8.5,24.8,15.2,4.9,87,81,72,30.25,30.00,5,2,11,0.00
2013-1-4,35.9,31.7,27.7,25.5,22.8,19.7,80,70,56,30.01,29.88,11,6,19,0.00
2013-1-5,36.4,32.0,26.6,27.4,24.2,21.3,83,73,60,30.29,30.01,9,3,16,0.00
2013-1-6,39.5,34.8,28.1,32.2,28.9,23.5,90,79,68,30.08,29.89,6,3,13,0.00
2013-1-7,35.3,27.4,18.6,31.8,22.5,15.6,93,82,67,30.40,30.06,7,3,11,0.00
2013-1-8,39.3,26.6,18.0,24.2,19.6,14.0,90,76,53,30.34,30.19,7,2,7,0.00
2013-1-9,50.4,33.8,16.1,37.4,26.1,14.2,94,74,59,30.32,29.96,9,4,15,0.00
2013-1-10,41.8,36.4,29.5,31.0,28.3,25.8,90,73,60,30.59,30.33,7,2,12,0.00
2013-1-11,41.5,37.9,32.7,36.3,31.7,27.6,87,79,67,30.45,29.92,13,9,18,0.10
2013-1-12,52.7,43.7,38.4,47.4,40.6,35.5,94,89,81,30.03,29.97,8,5,9,0.00
2013-1-13,58.9,55.2,50.9,52.0,50.2,48.0,90,83,77,29.88,29.77,12,6,13,0.00
2013-1-14,52.8,37.6,29.5,48.6,30.3,20.7,91,75,61,30.37,29.73,10,4,14,0.00
2013-1-15,34.2,29.7,27.6,23.6,21.3,18.7,80,71,55,30.40,30.20,4,2,7,0.00
2013-1-16,37.6,31.5,27.0,30.1,26.0,22.6,93,80,61,30.20,29.78,7,2,11,0.00
2013-1-17,35.7,26.1,17.2,29.3,18.9,11.8,88,74,60,30.19,29.85,12,4,15,0.00
2013-1-18,30.0,20.6,10.5,16.2,11.3,6.2,91,68,48,30.43,30.08,10,4,15,0.00
2013-1-19,49.8,42.2,29.8,31.8,24.8,16.8,68,50,38,30.07,29.61,9,4,16,0.00
2013-1-20,48.3,34.8,19.3,35.7,20.4,8.4,73,57,42,30.07,29.44,9,6,17,0.00
2013-1-21,21.9,19.0,15.3,14.4,9.5,6.4,80,66,58,30.06,29.87,6,2,9,0.00
2013-1-22,15.0,10.9,6.9,6.7,-2.2,-6.3,69,55,42,30.20,29.90,10,6,15,0.00
2013-1-23,10.5,5.8,-1.7,5.1,-0.5,-5.5,87,75,61,30.25,30.15,8,3,11,0.00
2013-1-24,14.4,6.0,-4.2,8.8,0.3,-8.1,86,77,60,30.53,30.14,9,3,14,0.00
2013-1-25,16.3,11.1,2.3,10.4,6.3,-0.4,89,81,71,30.51,30.11,5,2,8,0.00
2013-1-26,23.0,11.3,-1.5,15.0,6.6,-4.7,91,82,61,30.41,30.12,5,1,9,0.00
2013-1-27,27.8,20.0,11.9,16.5,14.2,9.3,92,78,60,30.58,30.41,5,1,7,0.01
2013-1-28,41.7,31.3,20.6,40.8,27.5,15.4,97,86,66,30.41,29.87,10,5,14,0.17
2013-1-29,49.9,39.8,31.6,48.5,38.8,30.7,97,96,94,30.07,29.79,12,4,13,0.37
2013-1-30,64.3,56.5,49.1,55.6,50.7,46.8,95,81,67,29.78,29.04,16,9,20,0.00
2013-1-31,54.7,32.4,22.3,51.9,23.0,11.2,91,68,51,29.69,29.00,15,9,34,0.25
2013-2-1,23.4,19.8,16.1,16.5,11.9,8.3,90,71,55,30.20,29.70,9,5,13,0.00
2013-2-2,21.1,17.2,9.8,15.8,10.2,5.1,90,74,59,30.21,29.99,9,4,12,0.00
2013-2-3,27.5,17.4,5.6,17.5,11.2,3.1,92,78,46,29.99,29.79,6,2,10,0.00
2013-2-4,23.2,19.6,16.3,13.3,10.2,5.5,81,67,48,29.95,29.86,8,4,14,0.00
2013-2-5,25.7,20.6,13.9,19.1,14.7,9.0,88,78,65,29.99,29.86,6,2,9,0.00
2013-2-6,27.0,23.0,12.5,24.2,15.5,8.7,91,73,52,30.40,29.88,9,4,16,0.00
2013-2-7,31.4,22.6,10.2,22.0,14.1,7.0,89,71,56,30.47,30.13,11,5,14,0.00
2013-2-8,36.1,30.1,19.8,31.4,25.7,18.1,95,84,59,30.13,29.79,12,6,17,0.00
2013-2-9,20.5,17.4,10.2,18.3,15.1,7.1,92,91,89,30.43,30.03,2,1,4,0.00
2013-2-10,34.5,19.5,-3.2,22.6,13.1,-6.6,93,77,55,30.44,30.03,13,5,15,0.00
2013-2-11,45.9,38.1,34.3,38.0,29.3,22.1,85,71,57,30.04,29.58,14,9,20,0.08
2013-2-12,36.1,33.5,31.1,29.1,26.0,23.4,88,74,63,29.96,29.70,10,6,21,0.00
2013-2-13,38.7,30.5,20.9,26.0,23.3,17.9,91,75,53,29.92,29.72,5,1,7,0.00
2013-2-14,39.1,32.2,22.1,33.5,27.0,19.7,93,82,61,29.94,29.80,8,3,10,0.09
2013-2-15,39.3,34.8,26.1,34.0,25.0,16.1,91,68,54,30.06,29.79,9,4,13,0.01
2013-2-16,28.1,23.7,19.6,19.5,15.8,12.2,82,72,59,30.06,29.94,6,2,9,0.00
2013-2-17,20.9,15.6,11.7,14.8,9.4,2.8,87,76,61,30.18,29.91,10,5,17,0.00
2013-2-18,30.8,20.4,10.8,17.6,11.5,6.9,86,69,53,30.32,29.99,8,4,14,0.00
2013-2-19,40.2,33.7,25.7,34.0,24.6,16.8,92,70,53,29.99,29.57,13,7,17,0.05
2013-2-20,25.8,22.6,19.7,19.8,14.0,9.9,86,70,54,30.06,29.77,11,7,19,0.00
2013-2-21,20.8,17.6,13.7,16.2,12.3,6.8,89,79,70,30.45,30.03,9,5,17,0.00
2013-2-22,35.3,26.9,16.2,27.3,21.2,13.9,92,80,65,30.42,30.06,13,6,21,0.00
2013-2-23,40.2,34.8,31.6,34.0,29.7,26.0,91,81,74,30.06,29.88,12,5,18,0.04
2013-2-24,33.3,31.2,29.8,27.4,24.9,22.4,87,77,68,30.05,29.85,8,3,14,0.00
2013-2-25,38.4,32.7,25.8,29.2,26.6,23.3,94,79,56,30.24,30.06,6,2,10,0.00
2013-2-26,41.9,33.1,23.1,31.5,27.5,21.9,96,81,59,30.25,29.88,14,6,18,0.02
2013-2-27,38.6,33.7,32.2,35.8,32.1,30.6,96,94,88,29.87,29.56,10,3,11,0.93
2013-2-28,40.5,35.5,32.5,33.3,32.0,31.1,95,87,71,29.70,29.54,5,2,9,0.26
2013-3-1,32.7,30.0,26.6,31.4,26.8,21.6,95,88,79,29.91,29.70,8,4,13,0.03
2013-3-2,26.6,24.5,23.0,24.6,20.9,19.4,92,86,77,29.93,29.86,6,4,9,0.00
2013-3-3,25.1,22.9,20.6,20.6,18.5,16.3,90,83,71,29.89,29.84,6,3,10,0.00
2013-3-4,29.5,25.6,21.8,22.4,19.0,16.2,84,76,65,30.03,29.88,9,6,14,0.00
2013-3-5,31.4,26.6,19.5,23.9,21.3,17.3,91,80,71,30.11,29.99,8,2,12,0.01
2013-3-6,39.8,31.6,18.5,32.1,27.0,16.5,94,83,69,30.14,29.97,11,4,12,0.00
2013-3-7,36.6,33.4,30.8,31.7,28.6,24.7,91,82,70,30.26,30.13,8,3,12,0.00
2013-3-8,39.2,31.9,23.6,26.9,24.5,21.5,93,75,53,30.39,30.24,11,4,16,0.00
2013-3-9,48.7,34.4,23.3,32.0,27.0,21.3,94,76,48,30.41,30.25,5,1,7,0.00
2013-3-10,59.6,46.3,29.9,33.7,29.8,25.4,86,55,34,30.25,30.00,11,7,15,0.00
2013-3-11,54.3,50.2,47.3,37.1,31.8,28.1,54,49,45,30.02,29.73,16,8,20,0.00
2013-9-21,60.5,59.4,55.3,59.4,58.3,53.3,97,96,93,29.68,29.61,3,2,10,0.52
2013-9-22,54.8,52.3,49.3,53.0,46.6,42.9,94,81,65,29.99,29.69,7,3,9,0.00
2013-9-23,56.5,49.9,40.0,45.3,43.2,39.2,97,78,61,30.13,29.99,6,2,9,0.00
2013-9-24,62.8,49.8,38.2,48.9,43.5,37.4,98,81,51,30.12,30.00,5,1,6,0.00
2013-9-25,67.6,52.6,40.5,54.5,46.6,39.4,97,82,51,30.00,29.93,4,1,6,0.01
2013-9-26,68.5,53.4,40.9,56.4,48.6,40.4,98,86,62,30.14,29.99,5,1,8,0.00
2013-9-27,68.3,54.0,42.1,58.2,50.1,41.6,98,88,64,30.25,30.14,4,1,5,0.01
2013-9-28,71.4,56.9,43.7,58.7,51.7,42.9,98,84,56,30.30,30.17,8,3,10,0.01
2013-9-29,72.9,58.8,45.9,58.2,51.4,45.1,98,79,53,30.18,29.99,8,3,10,0.00
2013-9-30,76.5,61.4,50.8,63.9,55.5,48.8,96,82,60,30.01,29.92,5,1,5,0.00
2013-10-1,75.3,64.7,56.4,61.7,58.3,54.5,98,82,54,30.00,29.90,4,1,7,0.00
2013-10-2,76.3,64.5,52.9,65.0,58.8,51.8,98,83,58,30.05,29.89,5,1,5,0.00
2013-10-3,72.3,59.6,47.5,56.4,51.8,46.3,98,79,40,30.11,30.01,3,0,4,0.01
2013-10-4,68.1,61.8,57.5,66.0,60.2,55.4,97,95,87,30.04,29.97,3,1,4,0.60
2013-10-5,63.8,60.6,59.1,61.0,59.1,58.1,98,95,89,30.08,30.02,4,1,4,0.00
2013-10-6,80.9,68.6,59.5,72.6,65.0,58.5,99,89,72,30.02,29.76,11,4,14,1.13
2013-10-7,71.1,62.3,52.1,66.1,56.3,45.5,96,81,58,29.99,29.60,11,4,13,0.81
2013-10-8,59.5,50.5,43.0,49.8,46.0,41.9,98,86,58,30.29,30.00,4,1,6,0.00
2013-10-9,60.4,49.8,44.0,46.9,45.3,42.7,95,85,61,30.30,30.29,0,0,0,0.00
2013-10-10,62.6,50.0,39.0,52.0,45.9,38.0,98,87,61,30.29,30.16,3,1,4,0.01
2013-10-11,68.0,53.0,43.7,54.4,48.4,42.9,98,86,55,30.16,30.10,2,0,4,0.00
2013-10-12,73.4,54.3,38.4,53.4,45.1,37.9,98,77,30,30.20,30.12,7,2,9,0.01
2013-10-13,69.7,61.0,48.1,59.8,55.0,46.5,95,81,65,30.28,30.20,8,3,10,0.23
2013-10-14,60.7,56.8,49.5,57.8,54.6,48.4,97,93,80,30.31,30.24,4,1,4,0.41
2013-10-15,65.8,55.3,45.3,58.0,52.3,44.7,98,90,75,30.28,29.97,7,2,8,0.01
2013-10-16,62.2,58.9,55.9,58.0,53.9,50.0,95,84,68,29.97,29.76,8,4,8,0.26
2013-10-17,64.6,56.5,47.4,53.7,50.7,46.3,97,82,59,29.87,29.64,3,1,5,0.55
2013-10-18,59.8,53.1,47.4,52.2,45.8,39.7,97,78,54,29.90,29.69,7,3,11,0.22
2013-10-19,62.6,54.1,45.7,49.2,45.2,41.1,89,73,51,29.89,29.63,10,4,11,0.10
2013-10-20,53.7,47.1,41.9,44.0,41.2,38.3,90,80,64,29.99,29.73,5,2,11,0.02
2013-10-21,66.2,55.0,43.5,43.7,41.7,39.1,93,64,37,29.99,29.77,8,4,9,0.00
2013-10-22,57.3,47.0,39.3,49.2,38.6,31.4,95,74,50,29.84,29.72,7,3,13,0.06
2013-10-23,47.6,40.5,34.8,39.3,35.5,31.7,94,82,69,29.82,29.67,3,1,11,0.00
2013-10-24,49.8,40.4,34.0,36.4,32.6,29.5,92,75,48,29.99,29.78,9,4,11,0.12
2013-10-25,48.2,41.5,35.7,39.8,36.6,34.1,94,83,68,30.17,30.00,4,2,8,0.02
2013-10-26,47.6,44.2,40.1,36.2,31.9,27.9,86,62,51,30.13,29.79,8,4,13,0.00
2013-10-27,48.6,43.0,38.3,37.1,35.2,32.7,89,75,59,30.06,29.80,5,2,8,0.00
2013-10-28,48.5,41.5,27.2,40.1,33.5,25.4,94,74,55,30.39,30.03,7,2,11,0.00
2013-10-29,46.1,33.6,22.0,33.0,27.3,20.7,96,80,51,30.47,30.31,3,1,4,0.00
2013-10-30,55.9,43.4,36.5,42.0,38.1,32.5,95,82,56,30.30,30.13,5,1,5,0.02
2013-10-31,62.3,53.5,36.4,58.1,50.8,35.1,96,90,84,30.11,29.45,9,5,10,0.56
2013-11-1,64.2,58.9,48.5,59.3,49.9,42.3,91,73,51,29.66,29.20,12,7,13,0.11
2013-11-2,52.0,46.3,38.1,46.6,43.4,36.5,95,90,76,29.96,29.59,8,2,8,0.46
2013-11-3,37.9,33.9,28.6,36.1,27.6,22.9,93,78,59,30.53,29.96,6,3,9,0.03
2013-11-4,40.8,33.1,20.5,28.5,23.3,19.3,96,70,45,30.67,30.49,8,2,9,0.00
2013-11-5,53.6,45.3,36.6,37.7,30.0,22.8,66,55,47,30.50,30.34,10,7,11,0.00
2013-11-6,61.1,54.4,46.9,51.9,45.6,37.9,82,72,62,30.34,29.81,12,8,18,0.00
2013-11-7,58.6,44.9,37.8,54.3,39.7,30.9,95,82,63,29.96,29.77,8,3,14,0.46
2013-11-8,41.3,37.7,34.0,34.2,30.3,26.7,87,75,57,30.21,29.92,8,4,9,0.01
2013-11-9,47.7,41.5,31.3,37.4,31.5,26.7,90,68,56,30.21,29.78,10,4,13,0.00
2013-11-10,51.5,43.9,39.5,42.3,36.6,31.1,95,76,63,30.11,29.76,10,5,15,0.15
2013-11-11,46.6,38.2,29.9,36.6,31.9,27.5,95,79,55,30.15,29.91,9,4,10,0.05
2013-11-12,31.4,28.0,24.6,27.7,22.9,20.0,94,82,67,30.37,30.09,8,5,13,0.00
2013-11-13,37.6,30.0,20.9,25.5,20.3,13.9,93,68,49,30.44,30.11,6,3,8,0.01
2013-11-14,54.1,42.0,33.5,27.9,20.4,15.2,60,43,27,30.12,30.01,6,3,9,0.00
2013-11-15,53.2,45.5,35.5,33.2,24.6,19.1,69,45,33,30.11,30.05,5,2,7,0.00
2013-11-16,57.7,47.0,33.3,40.1,35.1,28.2,83,64,48,30.25,30.08,7,2,8,0.00
2013-11-17,59.1,54.2,48.9,54.6,49.5,41.0,91,84,74,30.07,29.38,13,9,17,0.11
2013-11-18,59.8,48.4,37.4,55.0,37.8,27.4,93,67,54,29.85,29.35,18,8,21,0.32
2013-11-19,37.2,34.6,28.1,30.7,26.9,23.1,84,73,64,30.44,29.86,10,5,15,0.00
2013-11-20,37.2,29.1,21.7,23.4,20.6,17.3,90,71,51,30.61,30.44,5,2,8,0.00
2013-11-21,44.0,38.0,30.2,36.2,25.6,15.8,86,61,50,30.50,30.28,10,6,13,0.00
2013-11-22,48.0,42.3,34.8,46.6,40.3,30.1,96,93,79,30.27,29.96,9,3,10,0.28
2013-11-23,36.6,28.7,18.7,29.1,22.1,9.2,93,76,57,30.16,29.97,10,6,13,0.00
2013-11-24,22.6,18.7,15.8,17.8,13.9,9.1,92,82,61,30.40,30.14,8,5,12,0.00
2013-11-25,35.5,27.2,17.6,18.9,14.7,10.2,82,61,37,30.41,30.13,8,4,12,0.00
2013-11-26,36.8,33.5,31.8,31.4,28.0,22.5,96,81,63,30.17,29.83,7,3,11,0.00
2013-11-27,33.5,30.3,22.1,31.7,28.1,18.0,97,92,79,29.85,29.58,8,4,16,0.07
2013-11-28,28.4,22.6,18.4,19.9,16.8,13.7,90,79,60,30.43,29.86,7,3,9,0.00
2013-11-29,28.5,20.1,7.3,20.6,14.9,5.0,93,81,60,30.76,30.44,7,1,7,0.00
2013-11-30,31.7,21.2,2.9,21.9,14.4,-0.1,92,76,60,30.76,30.24,12,6,17,0.00
2013-12-1,37.9,33.0,29.6,32.3,27.4,21.6,95,80,70,30.24,29.97,7,4,8,0.10
2013-12-2,39.2,35.1,32.9,34.8,32.8,31.4,96,91,83,29.97,29.86,3,1,3,0.01
2013-12-3,39.3,32.2,24.2,31.9,28.1,22.7,96,86,66,30.01,29.90,3,0,3,0.00
2013-12-4,46.7,37.3,27.1,39.8,34.5,25.9,95,90,76,30.05,29.95,6,3,7,0.01
2013-12-5,58.0,51.0,42.4,53.1,45.8,37.3,90,83,66,29.97,29.74,11,7,13,0.00
2013-12-6,41.3,33.9,30.5,37.4,29.2,24.3,95,83,72,30.23,29.97,4,2,8,0.31
2013-12-7,31.0,28.3,24.8,27.1,20.1,15.1,87,71,56,30.55,30.22,7,4,11,0.00
2013-12-8,28.2,24.7,19.5,22.9,15.9,12.9,91,69,56,30.59,30.27,9,3,11,0.00
2013-12-9,40.6,34.3,25.3,34.9,28.8,22.9,92,81,70,30.25,29.85,14,7,21,0.03
2013-12-10,34.0,26.2,20.0,25.2,17.6,9.8,91,70,61,30.06,29.92,8,4,12,0.00
2013-12-11,24.7,21.2,15.1,19.4,14.0,8.9,88,74,62,30.26,30.06,6,4,8,0.00
2013-12-12,19.5,16.2,11.3,13.3,9.4,6.3,88,75,61,30.33,30.05,6,3,12,0.00
2013-12-13,24.8,18.9,14.1,20.2,13.7,7.5,90,80,69,30.40,30.03,9,4,12,0.00
2013-12-14,22.7,12.3,6.6,21.0,8.7,-1.0,93,85,68,30.48,29.80,13,6,16,0.00
2013-12-15,26.1,21.6,16.3,22.2,18.3,9.7,94,87,64,29.84,29.62,9,4,14,0.00
2013-12-16,22.9,13.6,-6.1,14.5,8.3,-9.4,90,79,63,30.21,29.84,8,3,16,0.00
2013-12-17,28.6,16.5,-9.9,24.1,13.4,-13.6,94,87,80,30.19,29.93,10,3,10,0.00
2013-12-18,31.4,28.0,21.7,24.8,22.5,20.2,94,80,67,30.08,29.93,5,2,9,0.00
2013-12-19,43.5,33.8,26.2,31.0,25.7,18.6,90,72,58,30.06,29.91,7,3,9,0.06
2013-12-20,46.0,39.9,33.4,41.2,36.9,30.8,97,89,76,30.00,29.78,4,1,5,0.06
2013-12-21,47.4,40.2,31.6,46.0,39.2,30.8,98,96,94,29.87,29.74,6,3,7,0.88
2013-12-22,43.6,35.1,30.7,42.6,33.9,30.0,98,96,89,29.97,29.60,6,2,8,0.27
2013-12-23,41.5,36.0,27.7,38.5,32.6,24.1,97,88,66,30.24,29.95,7,2,10,0.02
2013-12-24,27.5,20.2,11.4,24.4,17.0,7.0,94,87,78,30.48,30.21,8,3,10,0.00
2013-12-25,24.2,14.1,2.4,14.9,8.4,0.1,91,78,65,30.55,30.26,7,4,11,0.00
2013-12-26,33.7,27.7,23.5,28.3,20.5,15.1,88,74,67,30.26,30.06,8,5,13,0.00
2013-12-27,32.3,27.0,22.2,27.5,21.9,15.0,94,81,69,30.29,30.13,6,2,13,0.00
2013-12-28,45.3,35.0,24.2,34.7,29.2,22.6,95,80,61,30.11,29.95,5,1,9,0.00
2013-12-29,44.3,36.6,28.6,38.7,33.0,27.4,96,87,68,29.95,29.63,6,2,7,0.23
2013-12-30,34.1,19.5,14.1,31.2,14.3,9.1,92,80,73,30.24,29.73,8,4,11,0.00
2013-12-31,25.0,18.2,14.8,17.5,10.2,4.0,83,71,57,30.25,29.99,11,5,12,0.00
2014-1-1,21.7,17.0,13.2,13.3,9.6,6.5,88,73,57,30.42,30.26,5,3,7,0.00
2014-1-2,13.2,9.5,5.4,10.8,6.8,2.6,90,89,86,30.33,30.00,11,6,11,0.00